Ogilvie, Minnesota
Current Conditions -  °F | °C
As of 7:20 PM on Sunday 23 Nov 2014 (Local Time) from KJMR Reporting Station
Drizzle Drizzle  
Wind Chill:   Ceiling: 2300
Heat Index:   Visibility: 5mi
Dew Point:   Wind: 0mph
Humidity: 100%   Direction: NA
Pressure: 29.39"   Gusts: NA
Location:  45.83°N, 93.43°W
Report Text: KJMR 240120Z AUTO 00000KT 5SM DZ SCT009 BKN023 OVC040 01/01 A2939 RMK AO2
Loading
Personal Weather Stations






























Interactive Weather Map New forecast layout! Learn more

10-Day Weather Forecast

Advertisements
Track Severe Weather on mobile